KNJK/NJK METAR and TAF weather

Enter ICAO airport designator
Station Type Date Time Source
KNJK METAR 2020/01/26 03:56 UTC NOAA

KNJK 260356Z AUTO 25003KT 10SM CLR 14/01 A3006 RMK AO2 SLP194 T01440006 $


Station Type Date Time Source
KNJK Decoded METAR 2020/01/26 03:56 UTC NOAA

El Centro, Naval Air Facility, CA, United States (KNJK) 32-49-30N 115-39-38W -13M
Jan 25, 2020 - 10:56 PM EST / 2020.01.26 0356 UTC
Wind: from the WSW (250 degrees) at 3 MPH (3 KT):0
Visibility: 10 mile(s):0
Sky conditions: clear
Temperature: 57.9 F (14.4 C)
Dew Point: 33.1 F (0.6 C)
Relative Humidity: 38%
Pressure (altimeter): 30.06 in. Hg (1017 hPa)
ob: KNJK 260356Z AUTO 25003KT 10SM CLR 14/01 A3006 RMK AO2 SLP194 T01440006
cycle: 4

Station Type Date Time Source
KNJK TAF 2020/01/26 00:21 UTC NOAA

TAF TAF
AMD KNJK 2600/2623 VRB06KT 9999 FEW120 QNH2990INS
FM261900 VRB06KT 9999 BKN120 641006 QNH2992INS LAST NO
AMDS AFT 2600 NEXT 2707 T26/2600Z T08/2615Z
AMD 0017 FS30118

Example: see airport list